sensor_id;sensor_type;location;lat;lon;timestamp;pressure;altitude;pressure_sealevel;temperature;humidity
6435;BME280;3250;42.694;23.278;2023-02-15T00:02:14;96050.41;;;3.40;75.39
6435;BME280;3250;42.694;23.278;2023-02-15T00:04:39;96054.94;;;3.38;75.34
6435;BME280;3250;42.694;23.278;2023-02-15T00:07:15;95928.00;;;2.55;75.87
6435;BME280;3250;42.694;23.278;2023-02-15T00:09:41;96014.94;;;3.01;76.31
6435;BME280;3250;42.694;23.278;2023-02-15T00:12:09;96052.31;;;3.29;76.10
6435;BME280;3250;42.694;23.278;2023-02-15T00:14:35;96064.38;;;3.11;77.03
6435;BME280;3250;42.694;23.278;2023-02-15T00:17:00;95978.63;;;2.61;76.83
6435;BME280;3250;42.694;23.278;2023-02-15T00:19:26;96000.53;;;2.78;77.25
6435;BME280;3250;42.694;23.278;2023-02-15T00:21:51;95987.53;;;2.58;77.53
6435;BME280;3250;42.694;23.278;2023-02-15T00:24:18;96057.25;;;3.13;77.24
6435;BME280;3250;42.694;23.278;2023-02-15T00:26:45;95986.56;;;2.69;77.39
6435;BME280;3250;42.694;23.278;2023-02-15T00:29:12;96051.91;;;3.14;76.93
6435;BME280;3250;42.694;23.278;2023-02-15T00:31:39;96057.69;;;3.18;77.03
6435;BME280;3250;42.694;23.278;2023-02-15T00:36:36;96027.25;;;2.99;76.83
6435;BME280;3250;42.694;23.278;2023-02-15T00:39:02;96064.78;;;3.16;77.21
6435;BME280;3250;42.694;23.278;2023-02-15T00:41:30;96061.22;;;3.07;76.84
6435;BME280;3250;42.694;23.278;2023-02-15T00:43:55;96066.28;;;2.99;77.77
6435;BME280;3250;42.694;23.278;2023-02-15T00:46:20;96049.94;;;2.87;77.75
6435;BME280;3250;42.694;23.278;2023-02-15T00:48:46;96042.69;;;2.81;78.19
6435;BME280;3250;42.694;23.278;2023-02-15T00:51:11;96055.13;;;2.78;78.28
6435;BME280;3250;42.694;23.278;2023-02-15T00:53:37;96066.78;;;2.83;78.51
6435;BME280;3250;42.694;23.278;2023-02-15T00:56:02;96064.16;;;2.74;78.67
6435;BME280;3250;42.694;23.278;2023-02-15T00:58:27;96060.75;;;2.73;78.62
6435;BME280;3250;42.694;23.278;2023-02-15T01:00:53;96061.00;;;2.70;79.43
6435;BME280;3250;42.694;23.278;2023-02-15T01:03:19;96065.25;;;2.71;79.45
6435;BME280;3250;42.694;23.278;2023-02-15T01:05:47;96041.28;;;2.58;79.50
6435;BME280;3250;42.694;23.278;2023-02-15T01:08:13;96007.56;;;2.37;79.27
6435;BME280;3250;42.694;23.278;2023-02-15T01:10:38;96064.16;;;2.74;79.20
6435;BME280;3250;42.694;23.278;2023-02-15T01:13:04;96053.63;;;2.75;78.95
6435;BME280;3250;42.694;23.278;2023-02-15T01:15:30;96052.44;;;2.89;78.89
6435;BME280;3250;42.694;23.278;2023-02-15T01:17:55;96048.88;;;2.90;78.52
6435;BME280;3250;42.694;23.278;2023-02-15T01:20:26;96041.47;;;2.95;78.09
6435;BME280;3250;42.694;23.278;2023-02-15T01:22:52;96049.13;;;2.87;78.68
6435;BME280;3250;42.694;23.278;2023-02-15T01:25:20;96048.44;;;2.75;78.47
6435;BME280;3250;42.694;23.278;2023-02-15T01:27:46;96043.47;;;2.62;79.12
6435;BME280;3250;42.694;23.278;2023-02-15T01:30:12;96019.63;;;2.48;79.66
6435;BME280;3250;42.694;23.278;2023-02-15T01:32:38;96028.69;;;2.63;79.23
6435;BME280;3250;42.694;23.278;2023-02-15T01:35:03;96042.69;;;2.81;79.17
6435;BME280;3250;42.694;23.278;2023-02-15T01:37:33;96033.22;;;2.71;79.08
6435;BME280;3250;42.694;23.278;2023-02-15T01:39:58;96045.97;;;2.74;79.27
6435;BME280;3250;42.694;23.278;2023-02-15T01:42:26;96026.97;;;2.43;80.13
6435;BME280;3250;42.694;23.278;2023-02-15T01:50:10;96035.00;;;2.70;79.44
6435;BME280;3250;42.694;23.278;2023-02-15T01:52:42;96023.53;;;2.73;78.78
6435;BME280;3250;42.694;23.278;2023-02-15T01:55:10;96032.00;;;2.75;78.74
6435;BME280;3250;42.694;23.278;2023-02-15T01:57:35;96025.03;;;2.75;78.66
6435;BME280;3250;42.694;23.278;2023-02-15T02:00:03;96024.22;;;2.75;78.84
6435;BME280;3250;42.694;23.278;2023-02-15T02:02:29;96024.72;;;2.69;78.62
6435;BME280;3250;42.694;23.278;2023-02-15T02:04:59;96015.41;;;2.56;79.49
6435;BME280;3250;42.694;23.278;2023-02-15T02:07:29;96021.56;;;2.55;80.46
6435;BME280;3250;42.694;23.278;2023-02-15T02:09:57;96013.50;;;2.58;80.55
6435;BME280;3250;42.694;23.278;2023-02-15T02:12:23;96011.16;;;2.55;80.74
6435;BME280;3250;42.694;23.278;2023-02-15T02:14:50;96022.66;;;2.62;80.18
6435;BME280;3250;42.694;23.278;2023-02-15T02:17:34;96027.31;;;2.69;79.82
6435;BME280;3250;42.694;23.278;2023-02-15T02:25:49;96036.94;;;2.68;80.06
6435;BME280;3250;42.694;23.278;2023-02-15T02:34:17;96017.47;;;2.62;80.21
6435;BME280;3250;42.694;23.278;2023-02-15T02:36:49;96032.16;;;2.73;80.31
6435;BME280;3250;42.694;23.278;2023-02-15T02:42:05;96029.81;;;2.80;80.36
6435;BME280;3250;42.694;23.278;2023-02-15T02:44:38;96013.63;;;2.57;81.02
6435;BME280;3250;42.694;23.278;2023-02-15T02:47:13;96034.75;;;2.83;80.68
6435;BME280;3250;42.694;23.278;2023-02-15T02:49:43;96031.72;;;2.68;80.77
6435;BME280;3250;42.694;23.278;2023-02-15T02:52:38;96035.25;;;2.57;81.19
6435;BME280;3250;42.694;23.278;2023-02-15T02:57:34;96019.00;;;2.65;81.10
6435;BME280;3250;42.694;23.278;2023-02-15T03:00:03;96045.16;;;2.73;80.96
6435;BME280;3250;42.694;23.278;2023-02-15T03:02:37;96046.09;;;2.72;81.29
6435;BME280;3250;42.694;23.278;2023-02-15T03:05:07;96045.16;;;2.83;81.30
6435;BME280;3250;42.694;23.278;2023-02-15T03:07:35;96033.25;;;2.80;81.28
6435;BME280;3250;42.694;23.278;2023-02-15T03:10:04;96054.63;;;3.03;80.68
6435;BME280;3250;42.694;23.278;2023-02-15T03:12:35;96064.22;;;3.12;80.56
6435;BME280;3250;42.694;23.278;2023-02-15T03:15:18;96056.97;;;3.06;80.75
6435;BME280;3250;42.694;23.278;2023-02-15T03:17:51;96063.28;;;3.13;80.84
6435;BME280;3250;42.694;23.278;2023-02-15T03:20:28;96053.41;;;3.07;81.24
6435;BME280;3250;42.694;23.278;2023-02-15T03:22:58;96049.31;;;3.14;81.21
6435;BME280;3250;42.694;23.278;2023-02-15T03:25:30;96051.66;;;3.27;80.75
6435;BME280;3250;42.694;23.278;2023-02-15T03:28:02;96049.72;;;3.29;80.57
6435;BME280;3250;42.694;23.278;2023-02-15T03:30:29;96057.13;;;3.33;80.52
6435;BME280;3250;42.694;23.278;2023-02-15T03:32:58;96049.06;;;3.36;80.48
6435;BME280;3250;42.694;23.278;2023-02-15T03:35:29;96043.03;;;3.36;80.42
6435;BME280;3250;42.694;23.278;2023-02-15T03:37:59;96058.91;;;3.52;79.58
6435;BME280;3250;42.694;23.278;2023-02-15T03:40:31;96057.00;;;3.54;79.71
6435;BME280;3250;42.694;23.278;2023-02-15T03:46:13;96050.56;;;3.58;79.56
6435;BME280;3250;42.694;23.278;2023-02-15T03:48:44;96053.53;;;3.63;79.02
6435;BME280;3250;42.694;23.278;2023-02-15T03:51:16;96052.75;;;3.63;79.08
6435;BME280;3250;42.694;23.278;2023-02-15T03:54:37;96037.25;;;3.61;78.77
6435;BME280;3250;42.694;23.278;2023-02-15T03:57:46;96047.53;;;3.63;79.02
6435;BME280;3250;42.694;23.278;2023-02-15T04:00:24;96050.09;;;3.72;78.73
6435;BME280;3250;42.694;23.278;2023-02-15T04:05:41;96050.78;;;3.84;78.26
6435;BME280;3250;42.694;23.278;2023-02-15T04:08:08;96062.31;;;3.72;78.01
6435;BME280;3250;42.694;23.278;2023-02-15T04:10:33;96020.56;;;3.35;79.03
6435;BME280;3250;42.694;23.278;2023-02-15T04:13:17;96025.66;;;3.36;78.79
6435;BME280;3250;42.694;23.278;2023-02-15T04:15:43;96061.66;;;3.41;79.28
6435;BME280;3250;42.694;23.278;2023-02-15T04:18:26;96077.81;;;3.45;79.66
6435;BME280;3250;42.694;23.278;2023-02-15T04:21:10;96073.41;;;3.55;79.83
6435;BME280;3250;42.694;23.278;2023-02-15T04:23:54;96072.59;;;3.64;79.36
6435;BME280;3250;42.694;23.278;2023-02-15T04:26:40;96079.88;;;3.70;78.95
6435;BME280;3250;42.694;23.278;2023-02-15T04:29:06;96079.19;;;3.68;79.08
6435;BME280;3250;42.694;23.278;2023-02-15T04:31:31;96086.16;;;3.77;79.05
6435;BME280;3250;42.694;23.278;2023-02-15T04:33:56;96066.03;;;3.69;78.69
6435;BME280;3250;42.694;23.278;2023-02-15T04:36:22;96098.09;;;3.89;78.48
6435;BME280;3250;42.694;23.278;2023-02-15T04:38:47;96100.69;;;3.79;78.27
6435;BME280;3250;42.694;23.278;2023-02-15T04:41:13;96099.19;;;3.77;78.90
6435;BME280;3250;42.694;23.278;2023-02-15T04:43:38;96096.44;;;3.69;79.57
6435;BME280;3250;42.694;23.278;2023-02-15T04:46:04;96092.34;;;3.76;79.58
6435;BME280;3250;42.694;23.278;2023-02-15T04:48:29;96095.06;;;3.84;78.88
6435;BME280;3250;42.694;23.278;2023-02-15T04:50:55;96087.38;;;3.73;79.16
6435;BME280;3250;42.694;23.278;2023-02-15T04:53:21;96103.31;;;3.79;79.28
6435;BME280;3250;42.694;23.278;2023-02-15T04:55:46;96099.59;;;3.82;78.78
6435;BME280;3250;42.694;23.278;2023-02-15T04:58:11;96103.69;;;3.75;79.02
6435;BME280;3250;42.694;23.278;2023-02-15T05:00:37;96101.94;;;3.75;79.01
6435;BME280;3250;42.694;23.278;2023-02-15T05:03:02;96110.13;;;3.80;79.10
6435;BME280;3250;42.694;23.278;2023-02-15T05:05:28;96102.75;;;3.86;79.11
6435;BME280;3250;42.694;23.278;2023-02-15T05:07:53;96110.41;;;3.97;79.11
6435;BME280;3250;42.694;23.278;2023-02-15T05:10:19;96077.41;;;3.59;78.57
6435;BME280;3250;42.694;23.278;2023-02-15T05:12:44;96110.69;;;3.74;78.88
6435;BME280;3250;42.694;23.278;2023-02-15T05:15:10;96103.84;;;3.73;78.97
6435;BME280;3250;42.694;23.278;2023-02-15T05:17:36;96097.09;;;3.80;78.22
6435;BME280;3250;42.694;23.278;2023-02-15T05:20:01;96100.00;;;3.87;78.42
6435;BME280;3250;42.694;23.278;2023-02-15T05:22:27;96096.97;;;3.82;78.21
6435;BME280;3250;42.694;23.278;2023-02-15T05:24:55;96110.69;;;3.74;77.94
6435;BME280;3250;42.694;23.278;2023-02-15T05:27:40;96126.31;;;3.74;78.79
6435;BME280;3250;42.694;23.278;2023-02-15T05:30:24;96125.50;;;3.84;78.81
6435;BME280;3250;42.694;23.278;2023-02-15T05:32:52;96120.72;;;3.79;79.14
6435;BME280;3250;42.694;23.278;2023-02-15T05:35:18;96124.78;;;3.91;78.18
6435;BME280;3250;42.694;23.278;2023-02-15T05:37:43;96137.81;;;4.01;77.96
6435;BME280;3250;42.694;23.278;2023-02-15T05:40:09;96145.22;;;4.15;77.62
6435;BME280;3250;42.694;23.278;2023-02-15T05:42:35;96145.63;;;4.20;77.48
6435;BME280;3250;42.694;23.278;2023-02-15T05:45:01;96109.72;;;3.95;77.43
6435;BME280;3250;42.694;23.278;2023-02-15T05:47:29;96112.84;;;3.98;76.53
6435;BME280;3250;42.694;23.278;2023-02-15T05:49:57;96123.81;;;4.11;76.99
6435;BME280;3250;42.694;23.278;2023-02-15T05:52:23;96146.31;;;4.22;76.48
6435;BME280;3250;42.694;23.278;2023-02-15T05:54:48;96086.69;;;3.90;76.77
6435;BME280;3250;42.694;23.278;2023-02-15T05:57:14;96117.22;;;4.07;76.65
6435;BME280;3250;42.694;23.278;2023-02-15T05:59:40;96110.94;;;4.10;76.30
6435;BME280;3250;42.694;23.278;2023-02-15T06:02:05;96105.19;;;4.06;76.57
6435;BME280;3250;42.694;23.278;2023-02-15T06:04:32;96155.22;;;4.29;76.73
6435;BME280;3250;42.694;23.278;2023-02-15T06:06:57;96057.78;;;3.64;76.74
6435;BME280;3250;42.694;23.278;2023-02-15T06:09:23;96119.31;;;3.94;76.85
6435;BME280;3250;42.694;23.278;2023-02-15T06:11:49;96088.63;;;3.78;77.33
6435;BME280;3250;42.694;23.278;2023-02-15T06:14:14;96069.84;;;3.75;77.08
6435;BME280;3250;42.694;23.278;2023-02-15T06:16:40;96134.81;;;4.15;76.37
6435;BME280;3250;42.694;23.278;2023-02-15T06:19:08;96057.53;;;3.58;77.40
6435;BME280;3250;42.694;23.278;2023-02-15T06:21:34;96126.31;;;3.84;77.31
6435;BME280;3250;42.694;23.278;2023-02-15T06:24:00;96129.59;;;3.96;78.20
6435;BME280;3250;42.694;23.278;2023-02-15T06:26:25;96060.56;;;3.63;77.16
6435;BME280;3250;42.694;23.278;2023-02-15T06:28:51;96021.41;;;3.45;76.43
6435;BME280;3250;42.694;23.278;2023-02-15T06:31:17;96056.84;;;3.65;76.41
6435;BME280;3250;42.694;23.278;2023-02-15T06:33:42;96155.72;;;4.42;76.68
6435;BME280;3250;42.694;23.278;2023-02-15T06:36:08;96153.53;;;4.38;76.10
6435;BME280;3250;42.694;23.278;2023-02-15T06:38:34;96160.28;;;4.31;76.36
6435;BME280;3250;42.694;23.278;2023-02-15T06:40:59;96152.19;;;4.24;76.88
6435;BME280;3250;42.694;23.278;2023-02-15T06:43:24;96157.69;;;4.31;76.52
6435;BME280;3250;42.694;23.278;2023-02-15T06:45:50;96132.31;;;4.23;76.62
6435;BME280;3250;42.694;23.278;2023-02-15T06:48:15;96132.13;;;4.34;75.94
6435;BME280;3250;42.694;23.278;2023-02-15T06:50:40;96152.25;;;4.51;75.82
6435;BME280;3250;42.694;23.278;2023-02-15T06:53:06;96150.78;;;4.49;75.37
6435;BME280;3250;42.694;23.278;2023-02-15T06:55:31;96134.34;;;4.39;75.25
6435;BME280;3250;42.694;23.278;2023-02-15T06:57:57;96160.38;;;4.58;75.16
6435;BME280;3250;42.694;23.278;2023-02-15T07:00:22;96157.69;;;4.68;74.82
6435;BME280;3250;42.694;23.278;2023-02-15T07:02:56;96149.34;;;4.64;74.82
6435;BME280;3250;42.694;23.278;2023-02-15T07:05:23;96163.81;;;4.86;74.60
6435;BME280;3250;42.694;23.278;2023-02-15T07:07:49;96161.94;;;4.78;73.53
6435;BME280;3250;42.694;23.278;2023-02-15T07:10:14;96166.72;;;4.83;73.52
6435;BME280;3250;42.694;23.278;2023-02-15T07:12:40;96166.38;;;4.96;73.26
6435;BME280;3250;42.694;23.278;2023-02-15T07:15:11;96160.75;;;5.00;73.16
6435;BME280;3250;42.694;23.278;2023-02-15T07:17:36;96159.66;;;4.93;72.21
6435;BME280;3250;42.694;23.278;2023-02-15T07:20:08;96173.13;;;4.98;72.46
6435;BME280;3250;42.694;23.278;2023-02-15T07:22:34;96169.78;;;5.06;72.67
6435;BME280;3250;42.694;23.278;2023-02-15T07:25:02;96169.59;;;5.17;72.58
6435;BME280;3250;42.694;23.278;2023-02-15T07:27:28;96174.78;;;5.26;71.39
6435;BME280;3250;42.694;23.278;2023-02-15T07:29:53;96178.34;;;5.25;71.41
6435;BME280;3250;42.694;23.278;2023-02-15T07:32:18;96166.78;;;5.28;71.65
6435;BME280;3250;42.694;23.278;2023-02-15T07:34:44;96170.44;;;5.45;70.64
6435;BME280;3250;42.694;23.278;2023-02-15T07:37:09;96164.59;;;5.51;70.77
6435;BME280;3250;42.694;23.278;2023-02-15T07:39:34;96145.69;;;5.39;70.44
6435;BME280;3250;42.694;23.278;2023-02-15T07:42:00;96163.56;;;5.61;70.79
6435;BME280;3250;42.694;23.278;2023-02-15T07:44:26;96165.38;;;5.61;70.36
6435;BME280;3250;42.694;23.278;2023-02-15T07:46:51;96164.78;;;5.67;70.23
6435;BME280;3250;42.694;23.278;2023-02-15T07:49:17;96160.72;;;5.73;69.92
6435;BME280;3250;42.694;23.278;2023-02-15T07:51:42;96162.38;;;5.74;69.22
6435;BME280;3250;42.694;23.278;2023-02-15T07:54:07;96164.03;;;5.75;69.46
6435;BME280;3250;42.694;23.278;2023-02-15T07:56:33;96152.59;;;5.76;69.53
6435;BME280;3250;42.694;23.278;2023-02-15T07:58:59;96169.78;;;5.78;68.93
6435;BME280;3250;42.694;23.278;2023-02-15T08:01:31;96162.91;;;5.77;69.05
6435;BME280;3250;42.694;23.278;2023-02-15T08:03:58;96153.78;;;5.81;69.06
6435;BME280;3250;42.694;23.278;2023-02-15T08:06:26;96158.38;;;5.79;68.75
6435;BME280;3250;42.694;23.278;2023-02-15T08:08:52;96139.06;;;5.62;69.02
6435;BME280;3250;42.694;23.278;2023-02-15T08:16:48;96144.09;;;5.74;69.03
6435;BME280;3250;42.694;23.278;2023-02-15T08:19:25;96165.84;;;5.92;68.33
6435;BME280;3250;42.694;23.278;2023-02-15T08:21:53;96173.41;;;5.95;68.09
6435;BME280;3250;42.694;23.278;2023-02-15T08:24:21;96164.00;;;6.02;67.52
6435;BME280;3250;42.694;23.278;2023-02-15T08:26:48;96165.78;;;6.01;66.81
6435;BME280;3250;42.694;23.278;2023-02-15T08:29:14;96172.19;;;5.89;66.83
6435;BME280;3250;42.694;23.278;2023-02-15T08:31:41;96141.31;;;5.57;67.11
6435;BME280;3250;42.694;23.278;2023-02-15T08:34:08;96164.09;;;5.83;67.51
6435;BME280;3250;42.694;23.278;2023-02-15T08:36:33;96174.81;;;5.89;66.18
6435;BME280;3250;42.694;23.278;2023-02-15T08:39:00;96175.00;;;5.78;66.38
6435;BME280;3250;42.694;23.278;2023-02-15T08:41:29;96175.91;;;5.87;66.59
6435;BME280;3250;42.694;23.278;2023-02-15T08:44:00;96163.78;;;5.95;66.44
6435;BME280;3250;42.694;23.278;2023-02-15T08:46:28;96175.13;;;6.04;65.54
6435;BME280;3250;42.694;23.278;2023-02-15T08:48:54;96177.56;;;6.05;65.35
6435;BME280;3250;42.694;23.278;2023-02-15T08:51:22;96148.88;;;5.78;65.35
6435;BME280;3250;42.694;23.278;2023-02-15T08:53:51;96171.97;;;6.00;66.39
6435;BME280;3250;42.694;23.278;2023-02-15T08:56:22;96177.19;;;6.18;65.61
6435;BME280;3250;42.694;23.278;2023-02-15T08:58:48;96171.06;;;6.27;64.89
6435;BME280;3250;42.694;23.278;2023-02-15T09:01:17;96181.09;;;6.40;64.85
6435;BME280;3250;42.694;23.278;2023-02-15T09:03:49;96184.84;;;6.55;65.19
6435;BME280;3250;42.694;23.278;2023-02-15T09:06:16;96171.81;;;6.63;63.61
6435;BME280;3250;42.694;23.278;2023-02-15T09:08:42;96165.84;;;6.53;63.45
6435;BME280;3250;42.694;23.278;2023-02-15T09:13:34;96176.69;;;6.92;62.73
6435;BME280;3250;42.694;23.278;2023-02-15T09:16:04;96177.66;;;6.83;61.53
6435;BME280;3250;42.694;23.278;2023-02-15T09:18:31;96177.44;;;6.76;62.17
6435;BME280;3250;42.694;23.278;2023-02-15T09:21:05;96154.38;;;6.72;62.27
6435;BME280;3250;42.694;23.278;2023-02-15T09:23:31;96155.69;;;6.76;61.81
6435;BME280;3250;42.694;23.278;2023-02-15T09:25:57;96147.47;;;6.71;61.61
6435;BME280;3250;42.694;23.278;2023-02-15T09:28:26;96174.56;;;6.88;61.29
6435;BME280;3250;42.694;23.278;2023-02-15T09:30:52;96179.69;;;6.97;61.91
6435;BME280;3250;42.694;23.278;2023-02-15T09:33:18;96176.13;;;7.06;62.46
6435;BME280;3250;42.694;23.278;2023-02-15T09:35:43;96175.22;;;7.15;61.45
6435;BME280;3250;42.694;23.278;2023-02-15T09:38:08;96176.56;;;7.28;61.08
6435;BME280;3250;42.694;23.278;2023-02-15T09:40:48;96177.44;;;7.44;60.87
6435;BME280;3250;42.694;23.278;2023-02-15T09:43:25;96182.53;;;7.54;61.09
6435;BME280;3250;42.694;23.278;2023-02-15T09:46:27;96182.38;;;7.55;60.28
6435;BME280;3250;42.694;23.278;2023-02-15T09:49:08;96178.78;;;7.56;59.69
6435;BME280;3250;42.694;23.278;2023-02-15T09:51:51;96171.06;;;7.47;60.00
6435;BME280;3250;42.694;23.278;2023-02-15T09:54:36;96171.91;;;7.55;62.64
6435;BME280;3250;42.694;23.278;2023-02-15T09:57:10;96167.19;;;7.67;63.39
6435;BME280;3250;42.694;23.278;2023-02-15T10:03:33;96163.81;;;8.07;59.64
6435;BME280;3250;42.694;23.278;2023-02-15T10:06:37;96169.22;;;8.14;57.97
6435;BME280;3250;42.694;23.278;2023-02-15T10:28:23;96143.34;;;8.43;59.01
6435;BME280;3250;42.694;23.278;2023-02-15T10:30:54;96124.47;;;8.48;58.78
6435;BME280;3250;42.694;23.278;2023-02-15T10:33:43;96149.72;;;8.73;58.22
6435;BME280;3250;42.694;23.278;2023-02-15T10:36:37;96138.41;;;8.73;55.53
6435;BME280;3250;42.694;23.278;2023-02-15T10:44:55;96143.13;;;8.77;56.46
6435;BME280;3250;42.694;23.278;2023-02-15T10:53:49;96126.72;;;8.75;57.10
6435;BME280;3250;42.694;23.278;2023-02-15T11:01:34;96110.72;;;8.46;55.84
6435;BME280;3250;42.694;23.278;2023-02-15T11:06:53;96131.53;;;8.31;55.66
6435;BME280;3250;42.694;23.278;2023-02-15T11:09:22;96131.19;;;8.26;56.03
6435;BME280;3250;42.694;23.278;2023-02-15T11:11:52;96123.31;;;8.26;55.80
6435;BME280;3250;42.694;23.278;2023-02-15T11:17:01;96131.03;;;8.03;57.57
6435;BME280;3250;42.694;23.278;2023-02-15T11:19:37;96094.97;;;7.73;56.88
6435;BME280;3250;42.694;23.278;2023-02-15T11:22:05;96121.84;;;7.75;56.90
6435;BME280;3250;42.694;23.278;2023-02-15T11:24:37;96116.44;;;7.68;57.51
6435;BME280;3250;42.694;23.278;2023-02-15T11:27:17;96129.03;;;7.65;57.26
6435;BME280;3250;42.694;23.278;2023-02-15T11:30:00;96125.25;;;7.67;57.46
6435;BME280;3250;42.694;23.278;2023-02-15T11:37:33;96108.84;;;7.41;57.46
6435;BME280;3250;42.694;23.278;2023-02-15T11:40:00;96122.09;;;7.39;57.84
6435;BME280;3250;42.694;23.278;2023-02-15T11:42:29;96094.97;;;7.06;58.46
6435;BME280;3250;42.694;23.278;2023-02-15T11:45:02;96116.59;;;7.08;58.94
6435;BME280;3250;42.694;23.278;2023-02-15T11:47:30;96111.34;;;7.00;60.23
6435;BME280;3250;42.694;23.278;2023-02-15T11:49:56;96102.69;;;7.08;61.38
6435;BME280;3250;42.694;23.278;2023-02-15T11:52:22;96077.63;;;7.05;60.17
6435;BME280;3250;42.694;23.278;2023-02-15T11:54:50;96091.75;;;7.20;60.26
6435;BME280;3250;42.694;23.278;2023-02-15T11:57:25;96096.19;;;7.36;59.59
6435;BME280;3250;42.694;23.278;2023-02-15T12:00:14;96090.81;;;7.46;59.28
6435;BME280;3250;42.694;23.278;2023-02-15T12:02:46;96087.22;;;7.39;58.86
6435;BME280;3250;42.694;23.278;2023-02-15T12:05:18;96070.50;;;7.32;59.30
6435;BME280;3250;42.694;23.278;2023-02-15T12:07:54;96064.63;;;7.46;59.20
6435;BME280;3250;42.694;23.278;2023-02-15T12:10:26;96074.97;;;7.64;59.53
6435;BME280;3250;42.694;23.278;2023-02-15T12:13:09;96071.38;;;7.73;58.94
6435;BME280;3250;42.694;23.278;2023-02-15T12:15:35;96069.56;;;7.81;58.12
6435;BME280;3250;42.694;23.278;2023-02-15T12:18:01;96049.44;;;7.74;57.71
6435;BME280;3250;42.694;23.278;2023-02-15T12:20:32;96048.44;;;7.75;57.35
6435;BME280;3250;42.694;23.278;2023-02-15T12:23:05;96029.44;;;7.73;57.42
6435;BME280;3250;42.694;23.278;2023-02-15T12:25:43;96041.56;;;7.90;59.49
6435;BME280;3250;42.694;23.278;2023-02-15T12:30:52;96050.91;;;7.92;57.61
6435;BME280;3250;42.694;23.278;2023-02-15T12:33:30;96059.59;;;7.93;57.76
6435;BME280;3250;42.694;23.278;2023-02-15T12:38:37;96033.53;;;7.91;57.45
6435;BME280;3250;42.694;23.278;2023-02-15T12:41:23;96046.94;;;7.96;57.29
6435;BME280;3250;42.694;23.278;2023-02-15T12:44:09;96045.16;;;7.97;57.08
6435;BME280;3250;42.694;23.278;2023-02-15T12:46:41;96036.66;;;8.03;57.49
6435;BME280;3250;42.694;23.278;2023-02-15T12:51:45;96029.06;;;8.16;56.83
6435;BME280;3250;42.694;23.278;2023-02-15T12:54:38;96026.13;;;8.19;55.82
6435;BME280;3250;42.694;23.278;2023-02-15T12:59:50;96022.69;;;8.11;56.47
6435;BME280;3250;42.694;23.278;2023-02-15T13:02:25;96011.41;;;8.02;56.13
6435;BME280;3250;42.694;23.278;2023-02-15T13:04:52;96005.81;;;7.97;56.06
6435;BME280;3250;42.694;23.278;2023-02-15T13:07:18;96021.53;;;8.13;56.63
6435;BME280;3250;42.694;23.278;2023-02-15T13:09:44;96014.00;;;8.18;56.62
6435;BME280;3250;42.694;23.278;2023-02-15T13:12:15;96011.34;;;8.26;56.61
6435;BME280;3250;42.694;23.278;2023-02-15T13:14:44;95997.41;;;8.26;56.49
6435;BME280;3250;42.694;23.278;2023-02-15T13:17:12;96010.53;;;8.34;56.05
6435;BME280;3250;42.694;23.278;2023-02-15T13:19:45;96005.94;;;8.36;55.72
6435;BME280;3250;42.694;23.278;2023-02-15T13:22:18;95996.13;;;8.14;56.14
6435;BME280;3250;42.694;23.278;2023-02-15T13:24:51;95993.34;;;8.15;56.60
6435;BME280;3250;42.694;23.278;2023-02-15T13:27:21;96009.88;;;8.32;55.85
6435;BME280;3250;42.694;23.278;2023-02-15T13:29:57;96011.69;;;8.23;55.73
6435;BME280;3250;42.694;23.278;2023-02-15T13:32:33;96012.16;;;8.27;55.91
6435;BME280;3250;42.694;23.278;2023-02-15T13:35:02;96014.13;;;8.25;55.74
6435;BME280;3250;42.694;23.278;2023-02-15T13:43:06;96018.09;;;8.05;56.66
6435;BME280;3250;42.694;23.278;2023-02-15T13:48:44;96024.38;;;7.95;57.45
6435;BME280;3250;42.694;23.278;2023-02-15T13:51:27;96017.78;;;8.00;57.43
6435;BME280;3250;42.694;23.278;2023-02-15T14:07:56;96040.59;;;7.67;58.58
6435;BME280;3250;42.694;23.278;2023-02-15T14:10:51;96044.84;;;7.68;58.80
6435;BME280;3250;42.694;23.278;2023-02-15T14:19:20;96051.06;;;7.50;58.75
6435;BME280;3250;42.694;23.278;2023-02-15T14:27:09;96058.84;;;7.18;60.14
6435;BME280;3250;42.694;23.278;2023-02-15T14:32:18;96057.63;;;6.96;61.10
6435;BME280;3250;42.694;23.278;2023-02-15T14:34:49;96059.94;;;6.99;60.88
6435;BME280;3250;42.694;23.278;2023-02-15T14:37:20;96031.72;;;6.77;60.96
6435;BME280;3250;42.694;23.278;2023-02-15T14:48:50;96020.00;;;6.47;62.53
6435;BME280;3250;42.694;23.278;2023-02-15T15:05:02;96047.59;;;6.16;63.90
6435;BME280;3250;42.694;23.278;2023-02-15T15:12:42;96047.06;;;6.04;64.43
6435;BME280;3250;42.694;23.278;2023-02-15T15:18:10;96034.75;;;5.79;64.82
6435;BME280;3250;42.694;23.278;2023-02-15T15:20:49;96047.97;;;5.77;65.30
6435;BME280;3250;42.694;23.278;2023-02-15T15:25:43;96047.97;;;5.77;65.62
6435;BME280;3250;42.694;23.278;2023-02-15T15:42:32;96059.66;;;5.73;66.07
6435;BME280;3250;42.694;23.278;2023-02-15T15:50:27;96065.78;;;5.64;66.16
6435;BME280;3250;42.694;23.278;2023-02-15T15:52:57;96061.31;;;5.56;66.42
6435;BME280;3250;42.694;23.278;2023-02-15T15:55:25;96065.59;;;5.57;66.53
6435;BME280;3250;42.694;23.278;2023-02-15T15:57:55;96059.47;;;5.49;66.76
6435;BME280;3250;42.694;23.278;2023-02-15T16:00:38;96034.94;;;5.24;67.49
6435;BME280;3250;42.694;23.278;2023-02-15T16:03:23;96053.75;;;5.27;67.64
6435;BME280;3250;42.694;23.278;2023-02-15T16:05:49;96065.97;;;5.27;68.04
6435;BME280;3250;42.694;23.278;2023-02-15T16:08:36;96060.66;;;5.19;68.10
6435;BME280;3250;42.694;23.278;2023-02-15T16:11:11;96036.81;;;4.86;68.88
6435;BME280;3250;42.694;23.278;2023-02-15T16:13:40;96055.75;;;4.88;69.29
6435;BME280;3250;42.694;23.278;2023-02-15T16:16:07;96065.22;;;4.89;70.12
6435;BME280;3250;42.694;23.278;2023-02-15T16:18:33;96048.44;;;4.74;70.29
6435;BME280;3250;42.694;23.278;2023-02-15T16:21:04;96040.75;;;4.73;70.08
6435;BME280;3250;42.694;23.278;2023-02-15T16:26:16;96069.09;;;4.85;70.09
6435;BME280;3250;42.694;23.278;2023-02-15T16:28:52;96072.50;;;4.86;70.17
6435;BME280;3250;42.694;23.278;2023-02-15T16:31:19;96070.59;;;4.88;69.83
6435;BME280;3250;42.694;23.278;2023-02-15T16:33:45;96067.00;;;4.89;70.02
6435;BME280;3250;42.694;23.278;2023-02-15T16:36:31;96069.25;;;4.84;69.30
6435;BME280;3250;42.694;23.278;2023-02-15T16:41:24;96067.59;;;4.83;69.85
6435;BME280;3250;42.694;23.278;2023-02-15T16:43:51;96071.19;;;4.82;70.02
6435;BME280;3250;42.694;23.278;2023-02-15T16:46:31;96073.69;;;4.74;70.10
6435;BME280;3250;42.694;23.278;2023-02-15T16:49:01;96070.88;;;4.58;70.53
6435;BME280;3250;42.694;23.278;2023-02-15T16:51:30;96053.38;;;4.40;71.21
6435;BME280;3250;42.694;23.278;2023-02-15T16:54:03;96056.09;;;4.48;71.01